Alum Bank, Pennsylvania
Current Conditions -  °F | °C
As of 4:54 PM on Monday 24 Nov 2014 (Local Time) from KJST Reporting Station
Few Clouds Few Clouds  
Wind Chill: 62°   Ceiling: Unl
Heat Index: 62°   Visibility: 10mi
Dew Point: 38°   Wind: 14mph
Humidity: 41%   Direction: 240°WSW
Pressure: 29.57"   Gusts: 28mph
Location:  40.18°N, 78.61°W
Report Text: KJST 242154Z AUTO 24012G24KT 10SM FEW070 17/03 A2957 RMK AO2 PK WND 23029/2135 SLP006 T01670033
Loading
Personal Weather Stations






























Interactive Weather Map New forecast layout! Learn more

10-Day Weather Forecast

Advertisements
Track Severe Weather on mobile